Time;durP1;ratioP1;P1;durP2;ratioP2;P2;SDS_P1;SDS_P2;PMS_P1;PMS_P2;Temp;Humidity;BMP_temperature;BMP_pressure;BME280_temperature;BME280_humidity;BME280_pressure;Samples;Min_cycle;Max_cycle;Signal;HPM_P1;HPM_P2
2022/06/06 00:00:01;;;;;;;3.53;2.60;;;;;;;18.59;75.46;99607.94;344443;28;1119;-66
2022/06/06 00:00:13;;;;;;;3.85;2.80;;;;;;;18.53;75.67;99605.72;344839;28;1269;-66
2022/06/06 00:00:25;;;;;;;4.03;3.08;;;;;;;18.53;75.86;99605.72;344621;28;1258;-66
2022/06/06 00:00:39;;;;;;;4.00;3.08;;;;;;;18.49;76.08;99605.09;343272;28;1281;-66
2022/06/06 00:00:52;;;;;;;5.97;3.30;;;;;;;18.43;76.18;99607.25;343946;28;2070;-66
2022/06/06 00:01:15;;;;;;;6.55;3.30;;;;;;;18.38;76.51;99599.69;344731;28;990;-66
2022/06/06 00:01:27;;;;;;;4.13;3.10;;;;;;;18.36;76.46;99602.41;344201;28;1891;-66
2022/06/06 00:01:39;;;;;;;3.72;3.15;;;;;;;18.44;76.17;99601.06;344227;28;1241;-67
2022/06/06 00:01:53;;;;;;;4.10;3.10;;;;;;;18.48;76.00;99597.28;344776;28;1099;-66
2022/06/06 00:02:06;;;;;;;4.45;3.10;;;;;;;18.49;75.91;99606.84;344137;28;1794;-67
2022/06/06 00:02:18;;;;;;;4.35;3.10;;;;;;;18.50;76.03;99601.50;343715;28;1754;-67
2022/06/06 00:02:31;;;;;;;4.63;3.17;;;;;;;18.51;75.69;99602.34;344368;28;1356;-67
2022/06/06 00:02:44;;;;;;;5.07;3.20;;;;;;;18.45;75.98;99600.13;343804;28;1164;-67
2022/06/06 00:02:56;;;;;;;5.07;3.47;;;;;;;18.45;76.21;99600.13;343372;28;1111;-67
2022/06/06 00:03:09;;;;;;;4.15;3.60;;;;;;;18.47;76.12;99603.50;343743;28;1031;-67
2022/06/06 00:03:23;;;;;;;4.10;3.53;;;;;;;18.48;76.04;99599.91;343342;28;1373;-67
2022/06/06 00:03:35;;;;;;;5.00;3.15;;;;;;;18.45;76.02;99600.97;343523;28;1123;-67
2022/06/06 00:03:48;;;;;;;6.55;3.17;;;;;;;18.40;76.27;99602.22;343180;28;2090;-67
2022/06/06 00:04:00;;;;;;;5.80;3.13;;;;;;;18.46;76.00;99596.56;344175;28;1152;-67
2022/06/06 00:04:13;;;;;;;5.38;3.20;;;;;;;18.48;75.99;99597.28;344880;28;1095;-67
2022/06/06 00:04:27;;;;;;;5.55;3.10;;;;;;;18.52;75.84;99604.03;344877;28;1277;-67
2022/06/06 00:04:39;;;;;;;4.68;2.92;;;;;;;18.52;75.85;99596.97;344617;28;1626;-67
2022/06/06 00:04:51;;;;;;;4.80;2.90;;;;;;;18.55;75.63;99595.91;343684;28;2675;-67
2022/06/06 00:05:05;;;;;;;4.40;2.90;;;;;;;18.54;75.77;99594.25;344815;28;1987;-67
2022/06/06 00:05:17;;;;;;;4.25;3.00;;;;;;;18.57;75.38;99599.28;344831;28;1259;-67
2022/06/06 00:05:29;;;;;;;5.13;3.00;;;;;;;18.56;75.55;99598.47;344693;28;1962;-67
2022/06/06 00:05:42;;;;;;;5.95;2.90;;;;;;;18.58;75.54;99595.72;344756;28;1043;-66
2022/06/06 00:05:54;;;;;;;5.13;2.80;;;;;;;18.52;75.62;99598.78;344353;28;1371;-67
2022/06/06 00:06:12;;;;;;;5.38;3.20;;;;;;;18.55;75.44;99595.91;344671;28;1047;-67
2022/06/06 00:06:25;;;;;;;4.63;3.40;;;;;;;18.54;75.42;99597.72;344444;28;1831;-67
2022/06/06 00:06:39;;;;;;;4.90;3.25;;;;;;;18.52;75.46;99601.41;343797;28;1059;-67
2022/06/06 00:06:52;;;;;;;4.03;3.15;;;;;;;18.50;75.64;99592.78;343900;28;1477;-67
2022/06/06 00:07:05;;;;;;;4.22;3.13;;;;;;;18.53;75.48;99597.81;343629;28;1354;-67
2022/06/06 00:07:17;;;;;;;5.70;3.22;;;;;;;18.53;75.60;99595.19;343411;28;1847;-67
2022/06/06 00:07:29;;;;;;;5.75;3.20;;;;;;;18.54;75.49;99604.78;344398;28;1460;-67
2022/06/06 00:07:42;;;;;;;5.70;3.07;;;;;;;18.49;75.65;99596.34;344461;28;1957;-67
2022/06/06 00:07:54;;;;;;;4.63;3.03;;;;;;;18.54;75.66;99595.09;343464;28;1014;-67
2022/06/06 00:08:06;;;;;;;4.72;3.20;;;;;;;18.55;75.48;99596.78;344474;28;1050;-67
2022/06/06 00:08:18;;;;;;;4.95;3.30;;;;;;;18.51;75.46;99594.44;344269;28;2127;-66
2022/06/06 00:08:30;;;;;;;6.35;3.10;;;;;;;18.50;75.64;99592.78;344841;28;1233;-67
2022/06/06 00:08:42;;;;;;;6.13;3.00;;;;;;;18.50;75.63;99605.94;343931;28;1908;-67
2022/06/06 00:08:54;;;;;;;4.72;3.00;;;;;;;18.52;75.64;99601.41;344897;28;1299;-67
2022/06/06 00:09:08;;;;;;;5.07;3.17;;;;;;;18.49;75.76;99596.34;344978;28;1054;-67
2022/06/06 00:09:21;;;;;;;6.93;3.38;;;;;;;18.48;75.63;99599.91;343984;28;2373;-67
2022/06/06 00:09:34;;;;;;;5.82;3.30;;;;;;;18.46;75.54;99591.28;344028;28;1738;-67
2022/06/06 00:09:46;;;;;;;6.55;3.10;;;;;;;18.44;75.92;99593.19;344350;28;2092;-67
2022/06/06 00:09:58;;;;;;;6.60;3.08;;;;;;;18.41;75.81;99598.63;345025;28;1793;-67
2022/06/06 00:10:10;;;;;;;4.10;3.10;;;;;;;18.42;75.95;99601.16;344965;28;1043;-67
2022/06/06 00:10:23;;;;;;;4.80;3.10;;;;;;;18.40;76.12;99596.97;344343;28;1912;-67
2022/06/06 00:10:35;;;;;;;4.93;3.17;;;;;;;18.32;76.30;99592.19;343177;28;1853;-67
2022/06/06 00:10:55;;;;;;;5.65;3.30;;;;;;;18.36;76.34;99598.94;343336;28;1813;-67
2022/06/06 00:11:09;;;;;;;5.50;3.55;;;;;;;18.32;76.33;99600.91;343358;28;1040;-67
2022/06/06 00:11:21;;;;;;;4.32;3.30;;;;;;;18.36;76.13;99591.88;343451;28;1223;-67
2022/06/06 00:11:34;;;;;;;5.20;3.17;;;;;;;18.40;75.93;99599.59;343423;28;1226;-67
2022/06/06 00:11:47;;;;;;;5.55;3.10;;;;;;;18.35;76.02;99595.47;342879;28;1945;-67
2022/06/06 00:12:02;;;;;;;5.40;3.30;;;;;;;18.40;76.13;99594.31;342939;28;1987;-67
2022/06/06 00:12:15;;;;;;;4.35;3.30;;;;;;;18.40;76.11;99596.97;342131;28;1059;-67
2022/06/06 00:12:28;;;;;;;3.85;3.22;;;;;;;18.34;76.08;99588.50;342529;28;1349;-67
2022/06/06 00:12:40;;;;;;;4.95;3.45;;;;;;;18.36;76.08;99594.50;344513;28;1331;-67
2022/06/06 00:12:52;;;;;;;4.50;3.30;;;;;;;18.35;76.08;99595.47;343979;28;1976;-67
2022/06/06 00:13:04;;;;;;;3.85;3.22;;;;;;;18.29;76.29;99595.00;344302;28;2182;-67
2022/06/06 00:13:16;;;;;;;4.50;3.28;;;;;;;18.35;76.39;99590.22;344479;28;1676;-67
2022/06/06 00:13:28;;;;;;;5.88;3.20;;;;;;;18.30;76.08;99592.28;344829;28;1144;-67
2022/06/06 00:13:44;;;;;;;6.32;3.25;;;;;;;18.29;76.42;99590.63;344750;28;1334;-67
2022/06/06 00:13:57;;;;;;;4.93;3.22;;;;;;;18.31;76.19;99593.13;344221;28;2070;-67
2022/06/06 00:14:12;;;;;;;4.03;3.15;;;;;;;18.30;76.25;99587.03;344615;28;1128;-67
2022/06/06 00:14:24;;;;;;;3.30;3.00;;;;;;;18.30;76.49;99581.75;345183;28;1042;-67
2022/06/06 00:14:36;;;;;;;3.88;3.08;;;;;;;18.27;76.53;99587.25;344915;28;1140;-67
2022/06/06 00:14:49;;;;;;;4.57;3.10;;;;;;;18.25;76.47;99589.13;343788;28;1873;-67
2022/06/06 00:15:02;;;;;;;5.07;3.20;;;;;;;18.26;76.52;99588.16;344349;28;1963;-67
2022/06/06 00:15:14;;;;;;;4.47;3.20;;;;;;;18.27;76.43;99592.50;343554;28;1078;-67
2022/06/06 00:15:26;;;;;;;3.63;3.08;;;;;;;18.27;76.58;99592.50;342731;28;1975;-67
2022/06/06 00:15:38;;;;;;;3.45;3.08;;;;;;;18.22;76.74;99585.84;343494;28;1134;-67
2022/06/06 00:15:50;;;;;;;5.60;3.13;;;;;;;18.28;76.48;99588.06;342893;28;1683;-67
2022/06/06 00:16:03;;;;;;;6.97;3.30;;;;;;;18.30;76.37;99589.66;343382;28;1833;-67
2022/06/06 00:16:15;;;;;;;5.10;3.30;;;;;;;18.17;76.74;99587.00;343312;28;1063;-67
2022/06/06 00:16:29;;;;;;;4.38;3.30;;;;;;;18.20;76.83;99587.75;342117;28;1466;-67
2022/06/06 00:16:41;;;;;;;4.60;3.30;;;;;;;18.23;76.82;99584.88;342450;28;1061;-67
2022/06/06 00:16:54;;;;;;;5.65;3.40;;;;;;;18.29;76.57;99590.63;341132;28;1896;-66
2022/06/06 00:17:06;;;;;;;5.03;3.50;;;;;;;18.32;76.49;99585.13;341760;28;1383;-67
2022/06/06 00:17:18;;;;;;;4.82;3.33;;;;;;;18.23;76.58;99584.88;342945;28;1055;-67
2022/06/06 00:17:30;;;;;;;5.15;3.20;;;;;;;18.25;76.41;99594.38;342520;28;1291;-67
2022/06/06 00:17:42;;;;;;;5.68;3.30;;;;;;;18.29;76.45;99587.97;343082;28;1520;-67
2022/06/06 00:17:54;;;;;;;5.53;3.22;;;;;;;18.25;76.52;99583.88;342831;28;2008;-66
2022/06/06 00:18:06;;;;;;;5.65;3.42;;;;;;;18.22;76.66;99584.06;342493;28;1946;-67
2022/06/06 00:18:18;;;;;;;5.07;3.47;;;;;;;18.17;76.64;99586.16;341695;28;1803;-67
2022/06/06 00:18:31;;;;;;;5.40;3.20;;;;;;;18.18;76.64;99587.81;343002;28;1552;-67
2022/06/06 00:18:44;;;;;;;7.05;3.17;;;;;;;18.19;76.94;99579.00;343201;28;1316;-67
2022/06/06 00:18:56;;;;;;;6.38;3.40;;;;;;;18.25;76.67;99586.50;343326;28;2174;-67
2022/06/06 00:19:12;;;;;;;4.28;3.40;;;;;;;18.24;76.76;99587.44;343378;28;1108;-67
2022/06/06 00:19:24;;;;;;;3.95;3.17;;;;;;;18.26;76.72;99585.53;342955;28;1801;-67
2022/06/06 00:19:37;;;;;;;5.05;3.22;;;;;;;18.26;76.52;99585.53;343243;28;1538;-66
2022/06/06 00:19:49;;;;;;;5.32;3.38;;;;;;;18.23;76.82;99585.75;342930;28;2155;-67
2022/06/06 00:20:01;;;;;;;4.03;3.40;;;;;;;18.25;76.53;99583.88;343084;28;1532;-67
2022/06/06 00:20:13;;;;;;;4.03;3.33;;;;;;;18.23;76.89;99590.16;342299;28;1030;-67
2022/06/06 00:20:25;;;;;;;5.43;3.40;;;;;;;18.17;76.86;99583.53;342992;28;2331;-67
2022/06/06 00:20:37;;;;;;;5.88;3.50;;;;;;;18.17;76.89;99586.16;343344;28;1733;-67
2022/06/06 00:20:49;;;;;;;5.47;3.60;;;;;;;18.16;76.92;99584.47;343387;28;2006;-67
2022/06/06 00:21:02;;;;;;;3.90;3.50;;;;;;;18.17;76.99;99591.41;345255;28;732;-67
2022/06/06 00:21:14;;;;;;;5.45;3.55;;;;;;;18.20;76.84;99591.19;344898;28;1371;-67
2022/06/06 00:21:27;;;;;;;6.60;3.40;;;;;;;18.25;76.93;99589.13;344030;28;1602;-67
2022/06/06 00:21:40;;;;;;;6.65;3.13;;;;;;;18.28;76.56;99581.03;344914;28;1296;-67
2022/06/06 00:21:52;;;;;;;8.18;3.40;;;;;;;18.28;76.50;99588.91;343931;28;1216;-67
2022/06/06 00:22:04;;;;;;;6.73;3.53;;;;;;;18.33;76.08;99585.97;343893;28;1146;-67
2022/06/06 00:22:17;;;;;;;5.28;3.53;;;;;;;18.34;76.50;99585.03;343212;28;1060;-67
2022/06/06 00:22:29;;;;;;;4.18;3.50;;;;;;;18.26;76.46;99590.81;342818;28;2205;-67
2022/06/06 00:22:41;;;;;;;3.72;3.28;;;;;;;18.22;76.66;99584.06;343163;28;1711;-67
2022/06/06 00:22:53;;;;;;;3.78;3.30;;;;;;;18.22;76.82;99584.06;342412;28;1814;-67
2022/06/06 00:23:05;;;;;;;4.82;3.55;;;;;;;18.26;76.56;99587.34;341737;28;1819;-67
2022/06/06 00:23:17;;;;;;;4.43;3.53;;;;;;;18.23;76.79;99585.75;342004;28;1249;-67
2022/06/06 00:23:29;;;;;;;3.72;3.33;;;;;;;18.19;76.93;99581.63;341942;28;1290;-67
2022/06/06 00:23:41;;;;;;;3.47;3.13;;;;;;;18.23;76.70;99582.25;340803;29;1043;-67
2022/06/06 00:23:59;;;;;;;5.10;3.25;;;;;;;18.22;76.94;99583.22;341550;28;1831;-67
2022/06/06 00:24:12;;;;;;;5.82;3.70;;;;;;;18.19;76.97;99578.13;342537;28;855;-66
2022/06/06 00:24:24;;;;;;;4.45;3.58;;;;;;;18.23;76.90;99582.25;343024;28;1101;-67
2022/06/06 00:24:36;;;;;;;5.90;3.45;;;;;;;18.26;76.58;99589.97;343507;28;1071;-67
2022/06/06 00:24:48;;;;;;;5.80;3.40;;;;;;;18.28;76.53;99580.19;343148;28;1078;-67
2022/06/06 00:25:00;;;;;;;6.43;3.42;;;;;;;18.30;76.49;99587.03;343352;28;1204;-67
2022/06/06 00:25:12;;;;;;;6.03;3.50;;;;;;;18.28;76.63;99583.66;343933;28;1503;-67
2022/06/06 00:25:24;;;;;;;4.53;3.35;;;;;;;18.28;76.32;99583.66;344640;28;1182;-66
2022/06/06 00:25:36;;;;;;;4.30;3.38;;;;;;;18.28;76.49;99583.66;345098;28;1174;-66
2022/06/06 00:25:48;;;;;;;5.10;3.42;;;;;;;18.24;76.61;99582.16;344250;28;1957;-67
2022/06/06 00:26:01;;;;;;;5.40;3.47;;;;;;;18.26;76.57;99585.53;344397;28;1694;-67
2022/06/06 00:26:15;;;;;;;5.95;3.38;;;;;;;18.28;76.60;99583.66;344742;28;1172;-67
2022/06/06 00:26:29;;;;;;;4.97;3.15;;;;;;;18.33;76.30;99588.59;344587;28;1201;-67
2022/06/06 00:26:42;;;;;;;4.32;3.30;;;;;;;18.23;76.47;99580.50;344891;28;1184;-67
2022/06/06 00:26:54;;;;;;;4.15;3.45;;;;;;;18.17;76.79;99586.16;343953;28;1802;-66
2022/06/06 00:27:06;;;;;;;6.30;3.58;;;;;;;18.16;76.87;99579.19;344867;28;1671;-67
2022/06/06 00:27:18;;;;;;;6.97;3.47;;;;;;;18.07;77.48;99587.66;344474;28;1918;-67
2022/06/06 00:27:30;;;;;;;5.50;3.20;;;;;;;18.09;77.34;99585.78;343898;28;1451;-67
2022/06/06 00:27:42;;;;;;;4.88;3.20;;;;;;;18.07;77.53;99579.78;344291;28;2134;-67
2022/06/06 00:27:54;;;;;;;5.80;3.30;;;;;;;18.10;77.24;99582.22;344924;28;1902;-67
2022/06/06 00:28:07;;;;;;;6.35;3.47;;;;;;;18.09;77.38;99583.16;344806;28;1760;-66
2022/06/06 00:28:19;;;;;;;4.93;3.55;;;;;;;18.05;77.18;99579.91;345405;28;748;-67
2022/06/06 00:28:31;;;;;;;5.80;3.60;;;;;;;18.10;77.38;99590.13;344315;28;1281;-67
2022/06/06 00:28:44;;;;;;;5.43;3.55;;;;;;;18.08;77.51;99576.22;344668;28;1456;-67
2022/06/06 00:28:57;;;;;;;5.43;3.28;;;;;;;18.17;77.35;99580.91;344184;28;1241;-67
2022/06/06 00:29:14;;;;;;;4.93;3.22;;;;;;;18.12;77.34;99578.53;344818;28;983;-67
2022/06/06 00:29:27;;;;;;;4.50;3.40;;;;;;;18.18;77.15;99582.56;341978;28;1973;-67
2022/06/06 00:29:39;;;;;;;4.47;3.35;;;;;;;18.20;77.08;99585.94;343357;28;1864;-67
2022/06/06 00:29:53;;;;;;;6.47;3.40;;;;;;;18.21;77.02;99582.38;343315;28;1049;-67
2022/06/06 00:30:06;;;;;;;7.57;3.45;;;;;;;18.24;76.79;99592.69;343395;28;1277;-67
2022/06/06 00:30:18;;;;;;;7.70;3.20;;;;;;;18.24;76.99;99579.53;343300;28;1242;-67
2022/06/06 00:30:30;;;;;;;6.80;3.20;;;;;;;18.27;76.74;99587.25;343311;28;1164;-67
2022/06/06 00:30:42;;;;;;;6.43;3.22;;;;;;;18.25;76.81;99583.00;343284;28;1111;-67
2022/06/06 00:30:58;;;;;;;6.00;3.58;;;;;;;18.23;76.65;99585.75;343136;28;1761;-67
2022/06/06 00:34:50;;;;;;;3.97;3.47;;;;;;;18.00;77.60;99589.03;340213;29;1156;-67
2022/06/06 00:35:04;;;;;;;5.05;3.58;;;;;;;18.09;77.60;99583.16;340469;29;1509;-67
2022/06/06 00:35:20;;;;;;;5.88;3.50;;;;;;;18.09;77.41;99585.78;339853;28;2260;-67
2022/06/06 00:35:32;;;;;;;4.95;3.40;;;;;;;18.14;77.20;99581.09;339681;28;1949;-67
2022/06/06 00:35:44;;;;;;;4.43;3.40;;;;;;;18.07;77.53;99585.91;340734;29;1915;-66
2022/06/06 00:35:57;;;;;;;3.88;3.45;;;;;;;18.06;77.40;99578.09;340936;29;1297;-66
2022/06/06 00:36:09;;;;;;;4.53;3.65;;;;;;;18.09;77.51;99580.53;341690;28;1062;-67
2022/06/06 00:36:21;;;;;;;3.90;3.50;;;;;;;18.08;77.56;99581.47;342063;28;1070;-67
2022/06/06 00:36:35;;;;;;;4.10;3.60;;;;;;;18.05;77.86;99581.66;340872;28;1194;-67
2022/06/06 00:36:48;;;;;;;5.28;3.60;;;;;;;18.06;77.46;99584.19;339403;28;2167;-67
2022/06/06 00:37:00;;;;;;;4.88;3.50;;;;;;;18.06;77.71;99586.00;340735;28;1142;-66
2022/06/06 00:37:14;;;;;;;7.20;3.58;;;;;;;18.02;77.74;99581.88;343793;28;928;-67
2022/06/06 00:37:29;;;;;;;7.50;3.63;;;;;;;17.99;77.77;99582.94;344904;28;1494;-67
2022/06/06 00:37:42;;;;;;;5.28;3.50;;;;;;;17.99;77.68;99582.06;343702;28;1307;-66
2022/06/06 00:37:56;;;;;;;4.57;3.47;;;;;;;18.05;77.80;99577.28;343526;28;1800;-67
2022/06/06 00:38:08;;;;;;;5.75;3.40;;;;;;;17.97;77.74;99582.19;345192;28;2033;-67
2022/06/06 00:38:20;;;;;;;5.63;3.65;;;;;;;17.95;78.01;99581.44;344805;28;1310;-67
2022/06/06 00:38:32;;;;;;;6.88;3.80;;;;;;;17.98;77.99;99580.41;344405;28;1532;-67
2022/06/06 00:38:45;;;;;;;5.60;3.78;;;;;;;18.00;78.02;99583.78;344745;28;1059;-66
2022/06/06 00:38:57;;;;;;;4.30;3.58;;;;;;;18.03;77.98;99586.19;344975;28;1197;-67
2022/06/06 00:39:11;;;;;;;3.80;3.50;;;;;;;18.04;77.81;99580.84;344554;28;1028;-67
2022/06/06 00:39:24;;;;;;;3.80;3.40;;;;;;;17.96;77.92;99578.69;344660;28;1056;-67
2022/06/06 00:39:36;;;;;;;4.70;3.65;;;;;;;18.04;77.90;99577.38;345000;28;1063;-67
2022/06/06 00:39:49;;;;;;;4.95;3.60;;;;;;;17.96;77.90;99573.44;344069;28;1812;-67
2022/06/06 00:40:02;;;;;;;5.78;3.67;;;;;;;18.01;77.83;99574.91;343784;28;1312;-67
2022/06/06 00:40:17;;;;;;;5.65;3.50;;;;;;;18.04;77.92;99582.63;343905;28;1039;-67
2022/06/06 00:40:30;;;;;;;5.57;3.50;;;;;;;18.02;77.90;99571.34;343702;28;1918;-67
2022/06/06 00:40:48;;;;;;;5.47;3.60;;;;;;;18.03;77.85;99578.28;343560;28;1040;-67
2022/06/06 00:41:00;;;;;;;4.05;3.50;;;;;;;18.01;77.94;99582.81;344650;28;1552;-67
2022/06/06 00:41:12;;;;;;;5.85;3.50;;;;;;;17.98;78.04;99580.41;343466;28;1070;-67
2022/06/06 00:41:24;;;;;;;6.80;3.60;;;;;;;17.93;78.13;99578.91;343673;28;1633;-67
2022/06/06 00:41:48;;;;;;;6.63;3.80;;;;;;;18.00;77.79;99583.78;344722;28;1186;-67
2022/06/06 00:42:00;;;;;;;5.53;3.75;;;;;;;18.02;77.80;99571.34;344933;28;1256;-67
2022/06/06 00:42:12;;;;;;;5.93;3.53;;;;;;;18.03;77.72;99573.91;344763;28;1052;-67
2022/06/06 00:42:26;;;;;;;5.72;3.70;;;;;;;18.01;77.70;99588.06;344766;28;1271;-67
2022/06/06 00:42:41;;;;;;;5.00;3.70;;;;;;;18.03;77.89;99573.03;344821;28;1103;-67
2022/06/06 00:42:53;;;;;;;4.70;3.65;;;;;;;17.96;77.88;99569.97;343659;28;2612;-67
2022/06/06 00:43:05;;;;;;;4.40;3.72;;;;;;;17.96;78.00;99577.84;343625;28;1947;-67
2022/06/06 00:43:18;;;;;;;5.35;3.88;;;;;;;17.89;78.15;99572.16;344879;28;1067;-67
2022/06/06 00:43:30;;;;;;;5.28;3.85;;;;;;;17.94;78.08;99574.47;344025;28;1258;-67
2022/06/06 00:43:42;;;;;;;5.30;3.90;;;;;;;17.94;78.21;99577.09;343636;28;1227;-67
2022/06/06 00:44:10;;;;;;;5.90;3.80;;;;;;;18.02;78.10;99571.34;343347;28;2029;-67
2022/06/06 00:44:28;;;;;;;6.72;3.50;;;;;;;17.99;77.89;99572.41;343502;28;1311;-67
2022/06/06 00:44:41;;;;;;;5.65;3.83;;;;;;;17.87;78.16;99573.19;344740;28;1476;-67
2022/06/06 00:45:20;;;;;;;5.82;4.07;;;;;;;17.95;77.82;99577.03;343571;28;1841;-67
2022/06/06 00:45:35;;;;;;;8.30;3.80;;;;;;;17.95;78.02;99576.19;344384;28;1180;-67
2022/06/06 00:45:50;;;;;;;7.43;3.63;;;;;;;17.93;78.33;99568.38;344637;28;1976;-67
2022/06/06 00:46:02;;;;;;;4.63;3.83;;;;;;;17.93;78.24;99571.00;344333;28;1752;-67
2022/06/06 00:46:15;;;;;;;5.03;4.05;;;;;;;17.94;78.11;99572.69;344829;28;1163;-67
2022/06/06 00:46:28;;;;;;;5.57;3.95;;;;;;;17.95;77.96;99581.44;344033;28;2136;-67
2022/06/06 00:46:50;;;;;;;6.07;3.95;;;;;;;17.97;77.90;99566.41;344583;28;1035;-67
2022/06/06 00:47:17;;;;;;;5.75;3.90;;;;;;;18.03;77.84;99568.63;344575;28;1956;-67
2022/06/06 00:47:29;;;;;;;7.90;4.00;;;;;;;17.91;78.08;99574.69;344296;28;1403;-67
2022/06/06 00:47:43;;;;;;;6.43;3.90;;;;;;;17.90;78.26;99573.00;344868;28;1368;-67
2022/06/06 00:48:12;;;;;;;5.43;4.00;;;;;;;17.95;78.08;99569.13;343000;28;2054;-67
2022/06/06 00:48:30;;;;;;;6.57;4.20;;;;;;;17.95;77.89;99566.50;342111;28;1559;-67
2022/06/06 00:48:42;;;;;;;6.18;3.92;;;;;;;17.99;77.97;99572.41;343033;28;1908;-67
2022/06/06 00:48:54;;;;;;;4.90;3.75;;;;;;;18.01;77.97;99569.66;341740;28;1753;-67
2022/06/06 00:49:13;;;;;;;4.30;3.67;;;;;;;18.05;77.61;99566.75;343388;28;1741;-67
2022/06/06 00:49:38;;;;;;;6.07;3.80;;;;;;;18.03;77.67;99567.78;342583;28;1961;-67
2022/06/06 00:49:58;;;;;;;5.10;3.90;;;;;;;18.09;77.63;99562.13;342673;28;2121;-67
2022/06/06 00:50:16;;;;;;;4.50;3.70;;;;;;;18.09;77.29;99572.63;344020;28;1040;-66
2022/06/06 00:50:46;;;;;;;6.15;3.78;;;;;;;18.09;77.39;99567.38;344413;28;1540;-66
2022/06/06 00:51:03;;;;;;;5.50;3.78;;;;;;;18.15;77.18;99569.63;344237;28;1702;-67
2022/06/06 00:51:16;;;;;;;7.18;3.80;;;;;;;18.15;77.00;99567.84;343891;28;1242;-67
2022/06/06 00:51:31;;;;;;;6.50;3.83;;;;;;;18.20;76.86;99570.16;344315;28;1831;-67
2022/06/06 00:51:43;;;;;;;5.20;3.80;;;;;;;18.19;76.87;99567.63;345070;28;1094;-67
2022/06/06 00:51:56;;;;;;;6.35;3.90;;;;;;;18.18;76.84;99572.03;343825;28;1881;-67
2022/06/06 00:52:15;;;;;;;7.00;4.00;;;;;;;18.21;76.74;99574.50;345068;28;2170;-67
2022/06/06 00:52:31;;;;;;;6.40;4.10;;;;;;;18.12;77.04;99570.66;344757;28;1592;-66
2022/06/06 00:52:47;;;;;;;6.93;3.88;;;;;;;18.12;77.10;99575.91;344954;28;1047;-66
2022/06/06 00:53:00;;;;;;;6.28;4.05;;;;;;;18.14;77.08;99576.66;344522;28;1703;-66
2022/06/06 00:53:15;;;;;;;7.47;4.25;;;;;;;18.15;77.07;99574.91;345089;28;1153;-66
2022/06/06 00:53:31;;;;;;;9.18;3.97;;;;;;;18.17;76.94;99575.63;344002;28;1390;-66
2022/06/06 00:54:03;;;;;;;7.22;3.95;;;;;;;18.14;77.12;99575.81;346410;28;1034;-66
2022/06/06 00:54:14;;;;;;;5.90;3.97;;;;;;;18.17;76.95;99576.47;342824;28;1275;-66
2022/06/06 00:54:28;;;;;;;5.03;3.80;;;;;;;18.20;76.70;99572.78;343592;28;1226;-65
2022/06/06 00:54:42;;;;;;;4.50;3.65;;;;;;;18.21;76.73;99566.59;342753;28;1896;-66
2022/06/06 00:55:01;;;;;;;6.07;3.70;;;;;;;18.21;76.86;99563.09;343239;28;1020;-66
2022/06/06 00:55:19;;;;;;;5.63;3.85;;;;;;;18.20;76.98;99564.91;343240;28;1092;-67
2022/06/06 00:55:35;;;;;;;6.07;4.00;;;;;;;18.21;76.87;99568.34;343134;28;3003;-67
2022/06/06 00:55:53;;;;;;;5.45;4.00;;;;;;;18.17;76.91;99570.38;343462;28;1297;-66
2022/06/06 00:56:21;;;;;;;4.47;4.07;;;;;;;18.18;76.86;99569.41;343033;28;1174;-66
2022/06/06 00:56:48;;;;;;;5.90;3.78;;;;;;;18.21;76.73;99568.34;344583;28;1397;-66
2022/06/06 00:57:08;;;;;;;4.53;4.07;;;;;;;18.20;76.67;99559.63;344867;28;1071;-66
2022/06/06 00:57:25;;;;;;;4.60;3.80;;;;;;;18.18;76.76;99564.16;343994;28;2387;-66
2022/06/06 00:57:44;;;;;;;5.75;3.80;;;;;;;18.20;76.68;99564.06;344206;28;1883;-66
2022/06/06 00:58:05;;;;;;;6.60;4.05;;;;;;;18.18;76.62;99572.03;344350;28;1886;-66
2022/06/06 00:58:20;;;;;;;6.32;4.10;;;;;;;18.18;76.75;99564.16;343615;28;1098;-66
2022/06/06 00:58:34;;;;;;;6.35;4.10;;;;;;;18.13;76.88;99563.63;344252;28;1415;-66
2022/06/06 00:58:50;;;;;;;5.70;4.07;;;;;;;18.16;76.50;99561.63;345068;28;1051;-66
2022/06/06 00:59:06;;;;;;;5.35;3.95;;;;;;;18.20;76.66;99569.31;344898;28;1788;-65
2022/06/06 00:59:21;;;;;;;6.93;4.00;;;;;;;18.13;76.81;99564.47;344377;28;1073;-66
2022/06/06 00:59:36;;;;;;;6.35;4.07;;;;;;;18.12;76.86;99561.94;344654;28;1241;-65
2022/06/06 00:59:49;;;;;;;4.45;4.05;;;;;;;18.10;77.03;99569.06;344345;28;1854;-66
2022/06/06 01:00:10;;;;;;;4.40;4.00;;;;;;;18.13;77.00;99563.63;344714;28;1725;-66
2022/06/06 01:00:23;;;;;;;4.85;4.00;;;;;;;18.15;76.81;99567.00;345037;28;1083;-66
2022/06/06 01:00:37;;;;;;;5.32;3.97;;;;;;;18.16;76.87;99560.78;345210;28;1014;-66
2022/06/06 01:00:50;;;;;;;7.70;4.10;;;;;;;18.19;76.63;99565.00;344200;28;1967;-66
2022/06/06 01:01:03;;;;;;;8.45;4.00;;;;;;;18.19;76.72;99563.22;343794;28;1928;-66
2022/06/06 01:01:16;;;;;;;6.93;3.80;;;;;;;18.18;76.78;99556.25;344343;28;1244;-65
2022/06/06 01:01:31;;;;;;;5.05;3.80;;;;;;;18.19;76.64;99562.34;343637;28;1582;-66
2022/06/06 01:01:43;;;;;;;6.60;4.03;;;;;;;18.16;76.87;99566.03;343315;28;1040;-65
2022/06/06 01:01:56;;;;;;;8.02;4.13;;;;;;;18.17;76.65;99559.84;343818;28;1911;-66
2022/06/06 01:02:11;;;;;;;8.10;4.20;;;;;;;18.14;76.64;99560.88;345004;28;2066;-66
2022/06/06 01:02:23;;;;;;;7.60;4.20;;;;;;;18.17;76.77;99565.13;343969;28;1638;-65
2022/06/06 01:02:36;;;;;;;6.70;4.05;;;;;;;18.11;76.83;99555.84;345029;28;1349;-65
2022/06/06 01:02:53;;;;;;;6.40;4.07;;;;;;;18.13;76.91;99563.63;344508;28;2043;-66
2022/06/06 01:03:08;;;;;;;6.57;4.15;;;;;;;18.13;76.81;99564.47;343655;28;1710;-65
2022/06/06 01:03:24;;;;;;;6.35;4.18;;;;;;;18.12;76.96;99561.94;344902;28;1269;-66
2022/06/06 01:03:38;;;;;;;5.78;4.35;;;;;;;18.13;76.92;99561.00;344147;28;1974;-66
2022/06/06 01:03:51;;;;;;;5.00;4.30;;;;;;;18.08;77.01;99563.91;343206;28;1699;-66
2022/06/06 01:04:05;;;;;;;5.57;4.18;;;;;;;18.12;76.84;99561.94;344636;28;1842;-66
2022/06/06 01:04:21;;;;;;;6.20;4.15;;;;;;;18.12;76.94;99561.94;344777;28;1023;-66
2022/06/06 01:04:33;;;;;;;5.95;3.97;;;;;;;18.16;76.70;99563.41;344530;28;1356;-68
2022/06/06 01:04:46;;;;;;;4.80;3.83;;;;;;;18.16;76.74;99564.25;344547;28;1214;-68
2022/06/06 01:05:01;;;;;;;5.03;4.03;;;;;;;18.16;76.67;99563.41;344513;28;1597;-69
2022/06/06 01:05:14;;;;;;;5.35;4.25;;;;;;;18.13;76.82;99561.00;344072;28;1678;-68
2022/06/06 01:05:27;;;;;;;5.45;4.13;;;;;;;18.15;76.76;99564.38;344824;28;1276;-66
2022/06/06 01:05:42;;;;;;;5.05;3.95;;;;;;;18.12;76.92;99564.56;344969;28;1185;-66
2022/06/06 01:05:57;;;;;;;6.28;4.20;;;;;;;18.12;77.05;99561.94;343910;28;1897;-66
2022/06/06 01:06:13;;;;;;;7.03;4.60;;;;;;;18.16;76.81;99560.78;344336;28;1597;-66
2022/06/06 01:06:27;;;;;;;6.00;4.47;;;;;;;18.13;76.91;99563.63;344828;28;1168;-66
2022/06/06 01:06:41;;;;;;;6.28;4.20;;;;;;;18.16;76.60;99563.41;344926;28;1202;-66
2022/06/06 01:06:54;;;;;;;5.88;4.05;;;;;;;18.14;76.58;99566.13;344441;28;2170;-67
2022/06/06 01:07:09;;;;;;;4.80;3.95;;;;;;;18.17;76.66;99565.13;343791;28;1140;-67
2022/06/06 01:07:21;;;;;;;4.50;4.07;;;;;;;18.16;76.62;99561.63;344651;28;1021;-66
2022/06/06 01:07:33;;;;;;;4.88;4.15;;;;;;;18.14;76.98;99555.63;345331;28;1235;-65
2022/06/06 01:07:45;;;;;;;6.05;4.35;;;;;;;18.13;76.68;99558.38;344772;28;1292;-66
2022/06/06 01:07:57;;;;;;;6.38;4.35;;;;;;;18.13;76.75;99553.09;343562;28;1999;-65
2022/06/06 01:08:11;;;;;;;6.10;4.40;;;;;;;18.14;76.82;99560.03;344616;28;1367;-65
2022/06/06 01:08:24;;;;;;;7.25;4.30;;;;;;;18.13;76.91;99555.75;344926;28;1099;-66
2022/06/06 01:08:38;;;;;;;7.28;4.40;;;;;;;18.12;76.63;99556.66;345113;28;1412;-68
2022/06/06 01:08:51;;;;;;;5.90;4.43;;;;;;;18.12;76.93;99561.94;343286;28;1908;-67
2022/06/06 01:09:03;;;;;;;5.97;4.53;;;;;;;18.12;76.94;99556.66;344707;28;1808;-66
2022/06/06 01:09:18;;;;;;;5.55;4.60;;;;;;;18.13;76.86;99553.94;344814;28;1091;-66
2022/06/06 01:09:30;;;;;;;5.55;4.50;;;;;;;18.12;76.90;99561.94;343343;28;2089;-66
2022/06/06 01:09:43;;;;;;;5.35;4.25;;;;;;;18.13;76.77;99553.94;344765;28;2153;-66
2022/06/06 01:09:55;;;;;;;5.10;4.18;;;;;;;18.17;76.72;99557.22;345160;28;1223;-66
2022/06/06 01:10:08;;;;;;;5.70;4.10;;;;;;;18.17;76.53;99554.59;344753;28;1250;-66
2022/06/06 01:10:21;;;;;;;6.70;4.07;;;;;;;18.15;76.59;99559.94;344492;28;1907;-66
2022/06/06 01:10:34;;;;;;;6.90;4.05;;;;;;;18.14;76.73;99558.25;344777;28;1120;-66
2022/06/06 01:10:47;;;;;;;6.25;4.20;;;;;;;18.14;76.81;99560.03;344880;28;1318;-65
2022/06/06 01:10:59;;;;;;;4.53;4.10;;;;;;;18.14;76.52;99560.88;344971;28;1835;-65